createdAt,value
2023-04-11T00:02:07.046Z,11.10
2023-04-11T00:04:34.480Z,14.00
2023-04-11T00:07:01.550Z,13.50
2023-04-11T00:09:28.406Z,22.00
2023-04-11T00:11:55.199Z,17.30
2023-04-11T00:14:22.004Z,26.10
2023-04-11T00:16:50.079Z,15.90
2023-04-11T00:19:17.362Z,12.40
2023-04-11T00:21:44.305Z,22.10
2023-04-11T00:24:11.645Z,18.10
2023-04-11T00:26:40.733Z,21.80
2023-04-11T00:29:07.482Z,21.80
2023-04-11T00:31:34.759Z,22.10
2023-04-11T00:34:05.039Z,25.50
2023-04-11T00:36:34.714Z,20.20
2023-04-11T00:39:04.024Z,16.60
2023-04-11T00:41:30.726Z,18.20
2023-04-11T00:43:57.848Z,22.60
2023-04-11T00:46:25.269Z,21.40
2023-04-11T00:48:54.810Z,17.60
2023-04-11T00:51:21.992Z,17.90
2023-04-11T00:53:48.870Z,19.70
2023-04-11T00:56:15.620Z,21.70
2023-04-11T00:58:42.624Z,25.60
2023-04-11T01:01:09.616Z,18.40
2023-04-11T01:03:38.373Z,19.10
2023-04-11T01:06:15.768Z,23.00
2023-04-11T01:08:43.799Z,16.70
2023-04-11T01:11:12.957Z,20.80
2023-04-11T01:13:40.817Z,23.90
2023-04-11T01:16:10.907Z,19.80
2023-04-11T01:18:37.891Z,22.10
2023-04-11T01:21:05.159Z,17.10
2023-04-11T01:23:32.018Z,19.20
2023-04-11T01:25:58.848Z,25.90
2023-04-11T01:28:25.859Z,20.90
2023-04-11T01:30:52.835Z,18.10
2023-04-11T01:33:19.687Z,17.80
2023-04-11T01:35:46.537Z,21.50
2023-04-11T01:38:13.383Z,19.50
2023-04-11T01:40:40.480Z,19.40
2023-04-11T01:43:09.437Z,16.80
2023-04-11T01:45:36.682Z,23.80
2023-04-11T01:48:08.513Z,25.70
2023-04-11T01:50:35.992Z,24.20
2023-04-11T01:53:02.858Z,20.80
2023-04-11T01:55:29.700Z,21.60
2023-04-11T01:57:56.550Z,23.50
2023-04-11T02:00:24.167Z,22.00
2023-04-11T02:02:51.223Z,24.10
2023-04-11T02:05:18.618Z,18.90
2023-04-11T02:07:45.444Z,20.20
2023-04-11T02:10:12.126Z,25.40
2023-04-11T02:12:38.960Z,21.90
2023-04-11T02:15:06.398Z,22.10
2023-04-11T02:17:33.300Z,22.60
2023-04-11T02:20:07.024Z,18.20
2023-04-11T02:22:33.924Z,20.90
2023-04-11T02:25:00.893Z,22.30
2023-04-11T02:27:27.632Z,23.00
2023-04-11T02:29:54.395Z,20.00
2023-04-11T02:32:21.384Z,19.30
2023-04-11T02:34:48.576Z,16.60
2023-04-11T02:37:15.341Z,20.40
2023-04-11T02:39:42.258Z,20.00
2023-04-11T02:42:09.090Z,25.20
2023-04-11T02:44:35.854Z,19.90
2023-04-11T02:47:02.601Z,20.80
2023-04-11T02:49:29.445Z,14.10
2023-04-11T02:51:56.230Z,10.40
2023-04-11T02:54:23.051Z,7.20
2023-04-11T02:56:49.911Z,8.30
2023-04-11T02:59:16.741Z,10.80
2023-04-11T03:01:45.337Z,11.90
2023-04-11T03:04:12.250Z,15.40
2023-04-11T03:06:39.628Z,14.50
2023-04-11T03:09:06.431Z,14.00
2023-04-11T03:11:33.332Z,19.40
2023-04-11T03:14:00.180Z,15.20
2023-04-11T03:16:28.404Z,17.30
2023-04-11T03:18:55.508Z,22.00
2023-04-11T03:21:24.907Z,23.40
2023-04-11T03:23:51.757Z,17.40
2023-04-11T03:26:19.224Z,23.80
2023-04-11T03:28:46.171Z,18.50
2023-04-11T03:31:15.822Z,21.40
2023-04-11T03:33:46.516Z,18.10
2023-04-11T03:36:13.729Z,16.40
2023-04-11T03:38:40.723Z,20.30
2023-04-11T03:41:07.723Z,17.60
2023-04-11T03:43:34.518Z,16.00
2023-04-11T03:46:01.371Z,22.00
2023-04-11T03:48:30.078Z,21.00
2023-04-11T03:50:57.087Z,21.20
2023-04-11T03:53:26.412Z,22.00
2023-04-11T03:55:54.584Z,18.50
2023-04-11T03:58:21.620Z,19.70
2023-04-11T04:00:48.538Z,11.80
2023-04-11T04:03:15.494Z,13.50
2023-04-11T04:05:42.498Z,17.10
2023-04-11T04:08:09.335Z,16.00
2023-04-11T04:10:36.083Z,17.00
2023-04-11T04:13:02.922Z,16.60
2023-04-11T04:15:29.653Z,10.80
2023-04-11T04:17:57.005Z,14.20
2023-04-11T04:20:23.865Z,10.70
2023-04-11T04:22:54.099Z,12.10
2023-04-11T04:25:25.916Z,12.10
2023-04-11T04:27:54.235Z,10.10
2023-04-11T04:30:22.128Z,7.70
2023-04-11T04:32:48.895Z,8.90
2023-04-11T04:35:16.958Z,11.90
2023-04-11T04:37:46.756Z,9.20
2023-04-11T04:40:14.296Z,8.80
2023-04-11T04:42:44.635Z,9.80
2023-04-11T04:45:11.609Z,10.40
2023-04-11T04:47:40.788Z,10.10
2023-04-11T04:50:08.662Z,11.40
2023-04-11T04:52:35.504Z,8.80
2023-04-11T04:55:02.217Z,7.80
2023-04-11T04:57:30.233Z,10.20
2023-04-11T04:59:57.829Z,12.50
2023-04-11T05:02:28.047Z,8.50
2023-04-11T05:04:55.260Z,8.00
2023-04-11T05:07:22.415Z,13.30
2023-04-11T05:09:49.256Z,12.00
2023-04-11T05:12:16.936Z,11.30
2023-04-11T05:14:43.736Z,11.00
2023-04-11T05:17:10.520Z,16.90
2023-04-11T05:19:37.388Z,10.70
2023-04-11T05:22:04.178Z,6.80
2023-04-11T05:24:30.974Z,8.40
2023-04-11T05:27:00.633Z,7.70
2023-04-11T05:29:27.543Z,11.80
2023-04-11T05:31:54.208Z,9.60
2023-04-11T05:34:21.115Z,6.40
2023-04-11T05:36:47.905Z,13.50
2023-04-11T05:39:14.639Z,6.80
2023-04-11T05:41:42.166Z,6.70
2023-04-11T05:44:08.922Z,9.20
2023-04-11T05:46:37.442Z,6.60
2023-04-11T05:49:04.450Z,7.60
2023-04-11T05:51:31.607Z,7.00
2023-04-11T05:53:58.538Z,11.00
2023-04-11T05:56:25.923Z,6.40
2023-04-11T05:58:52.747Z,10.60
2023-04-11T06:01:19.690Z,9.30
2023-04-11T06:03:47.126Z,7.00
2023-04-11T06:06:14.444Z,5.40
2023-04-11T06:08:41.389Z,6.70
2023-04-11T06:11:08.362Z,11.80
2023-04-11T06:13:35.176Z,9.80
2023-04-11T06:16:02.493Z,7.80
2023-04-11T06:18:29.324Z,6.60
2023-04-11T06:20:56.345Z,10.70
2023-04-11T06:23:26.356Z,10.60
2023-04-11T06:25:53.406Z,9.70
2023-04-11T06:28:20.154Z,9.30
2023-04-11T06:30:46.918Z,8.00
2023-04-11T06:33:13.738Z,6.40
2023-04-11T06:35:40.721Z,6.90
2023-04-11T06:38:07.641Z,10.80
2023-04-11T06:40:34.848Z,11.80
2023-04-11T06:43:02.018Z,7.80
2023-04-11T06:45:29.308Z,9.50
2023-04-11T06:47:56.165Z,7.30
2023-04-11T06:50:23.318Z,8.30
2023-04-11T06:52:52.428Z,11.20
2023-04-11T06:55:19.356Z,9.70
2023-04-11T06:57:46.149Z,8.20
2023-04-11T07:00:13.749Z,7.30
2023-04-11T07:02:41.151Z,8.40
2023-04-11T07:05:12.057Z,10.70
2023-04-11T07:07:38.939Z,11.20
2023-04-11T07:10:06.610Z,15.20
2023-04-11T07:12:33.431Z,13.00
2023-04-11T07:15:00.388Z,9.00
2023-04-11T07:17:27.362Z,9.70
2023-04-11T07:19:54.281Z,9.50
2023-04-11T07:22:21.946Z,11.30
2023-04-11T07:24:52.219Z,7.20
2023-04-11T07:27:19.570Z,10.30
2023-04-11T07:29:46.480Z,9.60
2023-04-11T07:32:13.320Z,9.50
2023-04-11T07:34:40.381Z,10.10
2023-04-11T07:37:07.360Z,12.20
2023-04-11T07:39:34.128Z,11.90
2023-04-11T07:42:02.002Z,8.30
2023-04-11T07:44:31.852Z,10.90
2023-04-11T07:46:59.248Z,12.60
2023-04-11T07:49:25.934Z,10.00
2023-04-11T07:51:52.811Z,11.30
2023-04-11T07:54:19.762Z,8.80
2023-04-11T07:56:46.564Z,6.10
2023-04-11T07:59:16.127Z,8.20
2023-04-11T08:01:43.147Z,10.00
2023-04-11T08:04:10.145Z,10.10
2023-04-11T08:06:37.021Z,9.00
2023-04-11T08:09:04.313Z,12.20
2023-04-11T08:11:31.917Z,11.80
2023-04-11T08:14:00.981Z,8.30
2023-04-11T08:16:27.752Z,9.70
2023-04-11T08:18:54.585Z,9.10
2023-04-11T08:21:23.680Z,11.70
2023-04-11T08:23:53.701Z,6.60
2023-04-11T08:26:21.359Z,6.70
2023-04-11T08:28:48.217Z,9.60
2023-04-11T08:31:15.553Z,9.20
2023-04-11T08:33:42.532Z,7.60
2023-04-11T08:36:10.652Z,9.50
2023-04-11T08:38:38.686Z,9.50
2023-04-11T08:41:06.098Z,8.80
2023-04-11T08:43:38.047Z,8.90
2023-04-11T08:46:05.648Z,7.00
2023-04-11T08:48:33.121Z,9.60
2023-04-11T08:50:59.965Z,8.90
2023-04-11T08:53:27.721Z,8.30
2023-04-11T08:55:54.687Z,6.90
2023-04-11T08:58:21.525Z,9.90
2023-04-11T09:00:48.322Z,6.80
2023-04-11T09:03:17.116Z,7.70
2023-04-11T09:05:45.655Z,8.40
2023-04-11T09:08:16.614Z,6.20
2023-04-11T09:10:45.688Z,9.80
2023-04-11T09:13:18.888Z,7.80
2023-04-11T09:15:46.083Z,7.80
2023-04-11T09:18:32.279Z,6.00
2023-04-11T09:21:01.379Z,7.30
2023-04-11T09:23:29.007Z,8.90
2023-04-11T09:25:56.051Z,9.50
2023-04-11T09:28:23.413Z,11.00
2023-04-11T09:30:54.898Z,7.30
2023-04-11T09:33:28.723Z,8.40
2023-04-11T09:35:57.107Z,8.10
2023-04-11T09:38:34.537Z,9.60
2023-04-11T09:41:03.171Z,10.40
2023-04-11T09:43:51.888Z,6.50
2023-04-11T09:46:21.323Z,10.80
2023-04-11T09:48:49.441Z,7.00
2023-04-11T09:51:28.227Z,11.30
2023-04-11T09:54:03.574Z,9.20
2023-04-11T09:56:34.185Z,9.80
2023-04-11T09:59:03.374Z,9.80
2023-04-11T10:01:30.449Z,9.20
2023-04-11T10:03:58.705Z,6.80
2023-04-11T10:06:38.874Z,11.40
2023-04-11T10:09:11.281Z,8.90
2023-04-11T10:11:43.225Z,10.60
2023-04-11T10:14:38.794Z,5.20
2023-04-11T10:17:23.927Z,6.00
2023-04-11T10:19:57.428Z,6.80
2023-04-11T10:22:57.886Z,7.90
2023-04-11T10:25:25.409Z,6.20
2023-04-11T10:27:54.791Z,4.60
2023-04-11T10:30:40.144Z,7.10
2023-04-11T10:33:17.778Z,4.40
2023-04-11T10:36:10.944Z,5.30
2023-04-11T10:38:43.964Z,5.00
2023-04-11T10:41:19.292Z,7.30
2023-04-11T10:43:46.501Z,6.00
2023-04-11T10:46:23.467Z,9.20
2023-04-11T10:49:01.396Z,9.50
2023-04-11T10:51:30.099Z,7.10
2023-04-11T10:53:59.868Z,7.60
2023-04-11T10:56:52.265Z,5.00
2023-04-11T10:59:31.418Z,7.60
2023-04-11T11:02:01.627Z,4.80
2023-04-11T11:04:35.585Z,6.90
2023-04-11T11:07:04.588Z,5.50
2023-04-11T11:09:37.981Z,6.10
2023-04-11T11:12:11.652Z,5.50
2023-04-11T11:14:41.940Z,5.10
2023-04-11T11:17:09.388Z,4.90
2023-04-11T11:19:36.207Z,5.20
2023-04-11T11:22:04.755Z,5.60
2023-04-11T11:24:31.658Z,6.40
2023-04-11T11:26:59.219Z,4.90
2023-04-11T11:29:39.541Z,4.30
2023-04-11T11:32:07.003Z,6.10
2023-04-11T11:34:35.221Z,6.00
2023-04-11T11:37:06.520Z,5.90
2023-04-11T11:39:34.490Z,5.80
2023-04-11T11:42:01.797Z,5.70
2023-04-11T11:44:30.882Z,6.60
2023-04-11T11:47:25.990Z,8.60
2023-04-11T11:49:56.223Z,6.30
2023-04-11T11:52:40.867Z,5.10
2023-04-11T11:55:11.471Z,4.80
2023-04-11T11:57:45.001Z,6.20
2023-04-11T12:00:13.245Z,5.80
2023-04-11T12:02:42.485Z,5.10
2023-04-11T12:05:11.516Z,6.60
2023-04-11T12:07:39.457Z,6.60
2023-04-11T12:10:09.515Z,6.50
2023-04-11T12:12:41.426Z,6.20
2023-04-11T12:15:12.454Z,7.30
2023-04-11T12:17:40.110Z,6.50
2023-04-11T12:20:08.350Z,6.70
2023-04-11T12:22:35.743Z,6.20
2023-04-11T12:25:09.747Z,6.40
2023-04-11T12:27:37.825Z,6.50
2023-04-11T12:30:05.338Z,7.40
2023-04-11T12:32:35.994Z,13.40
2023-04-11T12:35:04.792Z,6.40
2023-04-11T12:37:32.523Z,6.70
2023-04-11T12:39:59.572Z,62.30
2023-04-11T12:42:27.476Z,14.70
2023-04-11T12:44:54.503Z,8.10
2023-04-11T12:47:21.503Z,8.90
2023-04-11T12:49:48.410Z,8.70
2023-04-11T12:52:15.200Z,11.80
2023-04-11T12:54:42.112Z,5.90
2023-04-11T12:57:08.835Z,8.40
2023-04-11T12:59:35.703Z,5.40
2023-04-11T13:02:03.010Z,5.00
2023-04-11T13:04:30.581Z,6.40
2023-04-11T13:07:01.421Z,4.50
2023-04-11T13:09:32.089Z,6.30
2023-04-11T13:11:59.381Z,7.40
2023-04-11T13:14:26.328Z,5.60
2023-04-11T13:16:53.739Z,6.00
2023-04-11T13:19:23.832Z,7.30
2023-04-11T13:21:50.627Z,6.70
2023-04-11T13:24:17.483Z,8.10
2023-04-11T13:26:45.258Z,5.10
2023-04-11T13:29:12.338Z,6.50
2023-04-11T13:31:39.195Z,5.00
2023-04-11T13:34:06.318Z,5.20
2023-04-11T13:36:33.449Z,5.90
2023-04-11T13:39:00.371Z,6.00
2023-04-11T13:41:27.162Z,6.60
2023-04-11T13:43:54.295Z,6.50
2023-04-11T13:46:21.943Z,9.80
2023-04-11T13:48:49.444Z,5.30
2023-04-11T13:51:16.232Z,5.60
2023-04-11T13:53:43.009Z,9.50
2023-04-11T13:56:10.699Z,6.10
2023-04-11T13:58:38.550Z,4.60
2023-04-11T14:01:06.996Z,4.90
2023-04-11T14:03:34.209Z,8.50
2023-04-11T14:06:01.809Z,7.80
2023-04-11T14:08:31.021Z,6.50
2023-04-11T14:10:57.818Z,6.50
2023-04-11T14:13:24.584Z,5.10
2023-04-11T14:16:04.869Z,7.30
2023-04-11T14:18:35.984Z,4.00
2023-04-11T14:21:04.680Z,7.10
2023-04-11T14:23:31.729Z,6.80
2023-04-11T14:25:58.562Z,7.60
2023-04-11T14:28:27.024Z,4.70
2023-04-11T14:30:55.980Z,6.50
2023-04-11T14:33:23.641Z,8.40
2023-04-11T14:35:51.171Z,5.20
2023-04-11T14:38:18.094Z,3.70
2023-04-11T14:40:45.201Z,4.60
2023-04-11T14:43:12.273Z,5.80
2023-04-11T14:45:39.242Z,5.60
2023-04-11T14:48:06.817Z,4.60
2023-04-11T14:50:34.031Z,6.60
2023-04-11T14:53:03.089Z,7.10
2023-04-11T14:55:29.792Z,4.30
2023-04-11T14:57:56.785Z,5.70
2023-04-11T15:00:25.371Z,4.40
2023-04-11T15:02:54.334Z,5.10
2023-04-11T15:05:22.837Z,5.20
2023-04-11T15:07:51.670Z,3.70
2023-04-11T15:10:24.602Z,5.70
2023-04-11T15:12:51.487Z,6.80
2023-04-11T15:15:18.246Z,6.20
2023-04-11T15:17:47.034Z,7.40
2023-04-11T15:20:14.896Z,4.60
2023-04-11T15:22:43.900Z,5.60
2023-04-11T15:25:13.361Z,4.40
2023-04-11T15:27:42.778Z,5.10
2023-04-11T15:30:11.617Z,5.90
2023-04-11T15:32:43.905Z,4.80
2023-04-11T15:35:11.108Z,6.30
2023-04-11T15:37:37.870Z,5.70
2023-04-11T15:40:06.322Z,5.30
2023-04-11T15:42:35.521Z,5.60
2023-04-11T15:45:03.346Z,2.70
2023-04-11T15:47:30.496Z,4.50
2023-04-11T15:49:59.178Z,4.90
2023-04-11T15:52:26.475Z,3.30
2023-04-11T15:54:53.489Z,6.30
2023-04-11T15:57:20.226Z,4.30
2023-04-11T15:59:47.090Z,4.50
2023-04-11T16:02:15.484Z,6.00
2023-04-11T16:04:47.917Z,4.70
2023-04-11T16:07:18.651Z,6.00
2023-04-11T16:09:46.583Z,3.70
2023-04-11T16:12:13.471Z,4.60
2023-04-11T16:14:40.533Z,3.60
2023-04-11T16:17:07.436Z,6.60
2023-04-11T16:19:34.358Z,6.20
2023-04-11T16:22:01.301Z,5.20
2023-04-11T16:24:31.603Z,5.20
2023-04-11T16:26:58.691Z,5.10
2023-04-11T16:29:25.489Z,4.40
2023-04-11T16:31:55.557Z,8.00
2023-04-11T16:34:22.598Z,6.00
2023-04-11T16:36:49.761Z,5.40
2023-04-11T16:39:16.610Z,5.30
2023-04-11T16:41:43.330Z,5.20
2023-04-11T16:44:13.475Z,6.30
2023-04-11T16:46:41.770Z,4.30
2023-04-11T16:49:09.346Z,6.00
2023-04-11T16:51:40.433Z,7.10
2023-04-11T16:54:10.394Z,4.40
2023-04-11T16:56:37.597Z,5.20
2023-04-11T16:59:05.204Z,6.80
2023-04-11T17:01:32.096Z,5.90
2023-04-11T17:03:59.546Z,8.70
2023-04-11T17:06:29.032Z,7.20
2023-04-11T17:08:57.789Z,4.20
2023-04-11T17:11:25.339Z,7.40
2023-04-11T17:13:54.548Z,4.40
2023-04-11T17:16:21.922Z,5.30
2023-04-11T17:18:48.831Z,6.30
2023-04-11T17:21:18.718Z,7.30
2023-04-11T17:23:46.533Z,4.30
2023-04-11T17:26:15.428Z,3.70
2023-04-11T17:28:42.544Z,9.20
2023-04-11T17:31:13.820Z,7.50
2023-04-11T17:33:41.743Z,5.30
2023-04-11T17:36:09.630Z,5.80
2023-04-11T17:38:41.066Z,5.20
2023-04-11T17:41:14.378Z,6.00
2023-04-11T17:43:44.133Z,9.50
2023-04-11T17:46:12.533Z,9.80
2023-04-11T17:48:39.409Z,7.60
2023-04-11T17:51:07.169Z,5.70
2023-04-11T17:53:34.377Z,5.90
2023-04-11T17:56:06.264Z,9.80
2023-04-11T17:58:35.821Z,7.50
2023-04-11T18:01:04.923Z,8.70
2023-04-11T18:03:35.154Z,5.50
2023-04-11T18:06:02.904Z,6.20
2023-04-11T18:08:46.738Z,9.10
2023-04-11T18:11:16.741Z,6.50
2023-04-11T18:13:44.045Z,7.10
2023-04-11T18:16:11.553Z,9.80
2023-04-11T18:18:41.388Z,8.40
2023-04-11T18:21:10.791Z,8.70
2023-04-11T18:23:38.878Z,10.10
2023-04-11T18:26:06.031Z,5.90
2023-04-11T18:28:32.874Z,6.30
2023-04-11T18:30:59.893Z,7.80
2023-04-11T18:33:27.121Z,7.20
2023-04-11T18:35:54.043Z,6.20
2023-04-11T18:38:21.407Z,8.50
2023-04-11T18:40:48.808Z,11.10
2023-04-11T18:43:15.878Z,6.80
2023-04-11T18:45:43.481Z,5.80
2023-04-11T18:48:11.463Z,9.80
2023-04-11T18:50:43.154Z,7.80
2023-04-11T18:53:13.576Z,6.80
2023-04-11T18:55:41.336Z,6.00
2023-04-11T18:58:09.820Z,7.40
2023-04-11T19:00:39.396Z,8.80
2023-04-11T19:03:07.086Z,9.20
2023-04-11T19:05:34.640Z,7.60
2023-04-11T19:08:01.691Z,9.00
2023-04-11T19:10:30.797Z,8.60
2023-04-11T19:12:58.017Z,6.60
2023-04-11T19:15:24.891Z,9.00
2023-04-11T19:17:51.795Z,10.10
2023-04-11T19:20:19.375Z,8.60
2023-04-11T19:22:46.750Z,7.60
2023-04-11T19:25:14.934Z,9.30
2023-04-11T19:27:44.450Z,9.10
2023-04-11T19:30:13.847Z,10.30
2023-04-11T19:32:43.801Z,7.00
2023-04-11T19:35:11.575Z,7.00
2023-04-11T19:37:39.400Z,7.20
2023-04-11T19:40:14.720Z,10.90
2023-04-11T19:42:42.453Z,7.20
2023-04-11T19:45:10.822Z,9.50
2023-04-11T19:47:39.886Z,8.50
2023-04-11T19:50:13.212Z,10.40
2023-04-11T19:52:41.992Z,7.50
2023-04-11T19:55:09.626Z,8.00
2023-04-11T19:57:39.016Z,8.60
2023-04-11T20:00:17.305Z,8.80
2023-04-11T20:02:46.775Z,9.20
2023-04-11T20:05:18.736Z,9.40
2023-04-11T20:07:46.827Z,8.80
2023-04-11T20:10:14.589Z,10.20
2023-04-11T20:12:41.724Z,12.70
2023-04-11T20:15:09.537Z,5.70
2023-04-11T20:17:36.364Z,6.50
2023-04-11T20:20:11.005Z,7.00
2023-04-11T20:22:38.628Z,6.70
2023-04-11T20:25:11.671Z,8.30
2023-04-11T20:27:39.316Z,8.20
2023-04-11T20:30:07.919Z,6.30
2023-04-11T20:32:35.264Z,8.20
2023-04-11T20:35:02.686Z,9.60
2023-04-11T20:37:34.554Z,7.70
2023-04-11T20:40:02.541Z,8.70
2023-04-11T20:42:31.784Z,6.80
2023-04-11T20:45:06.465Z,7.50
2023-04-11T20:50:05.914Z,6.20
2023-04-11T20:52:33.232Z,7.70
2023-04-11T20:55:01.120Z,8.50
2023-04-11T20:57:30.172Z,8.20
2023-04-11T20:59:57.879Z,8.20
2023-04-11T21:02:25.403Z,6.70
2023-04-11T21:04:53.232Z,4.80
2023-04-11T21:07:20.983Z,6.40
2023-04-11T21:09:49.266Z,6.10
2023-04-11T21:12:16.420Z,4.10
2023-04-11T21:14:43.153Z,9.80
2023-04-11T21:17:10.109Z,7.60
2023-04-11T21:19:37.817Z,6.80
2023-04-11T21:22:05.342Z,6.10
2023-04-11T21:24:33.177Z,5.20
2023-04-11T21:27:04.109Z,7.20
2023-04-11T21:29:33.200Z,6.50
2023-04-11T21:32:00.048Z,8.60
2023-04-11T21:34:32.879Z,7.70
2023-04-11T21:36:59.629Z,6.90
2023-04-11T21:39:26.684Z,6.60
2023-04-11T21:41:53.527Z,9.30
2023-04-11T21:44:20.615Z,7.80
2023-04-11T21:46:47.353Z,6.70
2023-04-11T21:49:14.275Z,8.10
2023-04-11T21:51:41.331Z,8.60
2023-04-11T21:54:08.193Z,7.30
2023-04-11T21:56:35.041Z,7.60
2023-04-11T21:59:01.883Z,9.20
2023-04-11T22:01:29.364Z,8.30
2023-04-11T22:03:56.549Z,8.10
2023-04-11T22:06:26.554Z,6.00
2023-04-11T22:08:58.376Z,8.80
2023-04-11T22:11:25.235Z,7.50
2023-04-11T22:13:52.992Z,8.70
2023-04-11T22:16:19.836Z,7.80
2023-04-11T22:18:46.984Z,9.70
2023-04-11T22:21:20.834Z,10.90
2023-04-11T22:23:54.430Z,6.80
2023-04-11T22:26:35.186Z,6.40
2023-04-11T22:29:05.831Z,10.30
2023-04-11T22:31:39.061Z,8.30
2023-04-11T22:34:08.573Z,9.20
2023-04-11T22:36:35.930Z,5.90
2023-04-11T22:39:07.117Z,7.70
2023-04-11T22:41:35.564Z,9.70
2023-04-11T22:44:02.970Z,7.90
2023-04-11T22:46:38.609Z,9.00
2023-04-11T22:49:06.737Z,6.70
2023-04-11T22:51:33.635Z,9.60
2023-04-11T22:54:01.284Z,7.40
2023-04-11T22:56:28.100Z,7.70
2023-04-11T22:58:57.744Z,7.00
2023-04-11T23:01:24.853Z,7.40
2023-04-11T23:03:52.088Z,6.90
2023-04-11T23:06:18.989Z,10.30
2023-04-11T23:08:45.761Z,6.90
2023-04-11T23:11:12.811Z,8.40
2023-04-11T23:13:39.648Z,8.00
2023-04-11T23:16:07.303Z,7.80
2023-04-11T23:18:34.156Z,8.00
2023-04-11T23:21:02.101Z,7.70
2023-04-11T23:23:29.296Z,6.70
2023-04-11T23:25:56.532Z,9.30
2023-04-11T23:28:24.330Z,8.00
2023-04-11T23:30:51.306Z,6.90
2023-04-11T23:33:18.511Z,7.70
2023-04-11T23:35:45.480Z,7.00
2023-04-11T23:38:12.455Z,6.40
2023-04-11T23:40:39.560Z,6.50
2023-04-11T23:43:06.439Z,9.90
2023-04-11T23:45:33.565Z,7.50
2023-04-11T23:48:02.699Z,7.00
2023-04-11T23:50:29.525Z,8.50
2023-04-11T23:52:56.364Z,8.40
2023-04-11T23:55:23.691Z,8.20
2023-04-11T23:57:50.566Z,7.40
